createdAt,value
2022-09-10T00:00:39.177Z,100790.84
2022-09-10T00:01:41.116Z,100790.97
2022-09-10T00:02:43.295Z,100790.71
2022-09-10T00:03:45.272Z,100796.27
2022-09-10T00:04:47.358Z,100785.48
2022-09-10T00:05:49.390Z,100790.05
2022-09-10T00:06:51.636Z,100801.56
2022-09-10T00:07:53.705Z,100794.56
2022-09-10T00:08:56.714Z,100782.37
2022-09-10T00:09:58.638Z,100795.55
2022-09-10T00:11:02.422Z,100794.83
2022-09-10T00:12:04.355Z,100795.61
2022-09-10T00:13:06.480Z,100786.10
2022-09-10T00:14:10.548Z,100787.21
2022-09-10T00:15:12.811Z,100790.45
2022-09-10T00:16:15.859Z,100787.93
2022-09-10T00:17:18.076Z,100755.92
2022-09-10T00:18:21.251Z,100787.93
2022-09-10T00:19:23.152Z,100784.62
2022-09-10T00:20:25.281Z,100783.31
2022-09-10T00:21:27.676Z,100779.34
2022-09-10T00:22:29.450Z,100783.78
2022-09-10T00:23:31.633Z,100784.70
2022-09-10T00:24:33.638Z,100782.90
2022-09-10T00:25:35.699Z,100783.02
2022-09-10T00:26:37.574Z,100781.07
2022-09-10T00:27:39.451Z,100774.83
2022-09-10T00:28:41.592Z,100781.66
2022-09-10T00:29:43.412Z,100782.77
2022-09-10T00:30:47.192Z,100780.94
2022-09-10T00:31:49.118Z,100770.69
2022-09-10T00:32:51.049Z,100776.82
2022-09-10T00:33:53.079Z,100781.07
2022-09-10T00:34:54.905Z,100767.38
2022-09-10T00:35:57.040Z,100776.63
2022-09-10T00:36:58.762Z,100776.76
2022-09-10T00:38:01.211Z,100769.67
2022-09-10T00:39:08.353Z,100773.79
2022-09-10T00:40:10.547Z,100772.31
2022-09-10T00:41:13.191Z,100768.03
2022-09-10T00:42:15.192Z,100770.62
2022-09-10T00:43:19.193Z,100738.02
2022-09-10T00:44:38.294Z,100768.48
2022-09-10T00:45:41.024Z,100767.57
2022-09-10T00:46:45.113Z,100760.42
2022-09-10T00:47:47.974Z,100762.48
2022-09-10T00:48:50.509Z,100762.66
2022-09-10T00:49:54.290Z,100765.13
2022-09-10T00:50:58.289Z,100763.52
2022-09-10T00:52:00.869Z,100765.50
2022-09-10T00:53:04.486Z,100767.23
2022-09-10T00:54:07.418Z,100766.48
2022-09-10T00:55:10.925Z,100768.08
2022-09-10T00:56:13.210Z,100764.78
2022-09-10T00:57:17.096Z,100772.65
2022-09-10T00:58:20.254Z,100774.50
2022-09-10T00:59:23.938Z,100765.69
2022-09-10T01:00:26.374Z,100769.28
2022-09-10T01:01:28.567Z,100768.34
2022-09-10T01:02:30.767Z,100769.22
2022-09-10T01:03:32.621Z,100766.28
2022-09-10T01:04:35.425Z,100770.73
2022-09-10T01:05:37.870Z,100769.88
2022-09-10T01:06:40.276Z,100762.86
2022-09-10T01:07:42.680Z,100767.23
2022-09-10T01:08:44.696Z,100771.64
2022-09-10T01:09:47.278Z,100757.44
2022-09-10T01:10:51.060Z,100762.73
2022-09-10T01:11:54.803Z,100752.16
2022-09-10T01:13:04.579Z,100749.51
2022-09-10T01:14:25.226Z,100759.42
2022-09-10T01:15:44.151Z,100750.55
2022-09-10T01:16:57.052Z,100748.53
2022-09-10T01:18:03.740Z,100744.28
2022-09-10T01:19:13.687Z,100749.89
2022-09-10T01:20:17.519Z,100745.48
2022-09-10T01:21:21.348Z,100750.89
2022-09-10T01:22:42.394Z,100753.48
2022-09-10T01:24:01.273Z,100744.53
2022-09-10T01:25:07.975Z,100754.08
2022-09-10T01:26:14.600Z,100746.99
2022-09-10T01:27:35.129Z,100744.53
2022-09-10T01:28:39.162Z,100742.61
2022-09-10T01:29:45.811Z,100743.75
2022-09-10T01:30:49.551Z,100743.50
2022-09-10T01:31:53.304Z,100743.62
2022-09-10T01:33:15.425Z,100742.97
2022-09-10T01:34:25.452Z,100748.91
2022-09-10T01:35:47.687Z,100740.03
2022-09-10T01:36:51.512Z,100741.89
2022-09-10T01:37:55.138Z,100744.60
2022-09-10T01:38:57.098Z,100740.73
2022-09-10T01:39:59.607Z,100747.05
2022-09-10T01:41:01.595Z,100748.98
2022-09-10T01:42:04.119Z,100748.66
2022-09-10T01:43:07.505Z,100750.61
2022-09-10T01:44:10.637Z,100756.78
2022-09-10T01:45:13.887Z,100753.26
2022-09-10T01:46:17.974Z,100746.52
2022-09-10T01:47:22.024Z,100758.64
2022-09-10T01:48:25.837Z,100750.55
2022-09-10T01:49:44.959Z,100748.66
2022-09-10T01:50:48.762Z,100755.52
2022-09-10T01:51:58.609Z,100753.00
2022-09-10T01:53:19.141Z,100753.82
2022-09-10T01:54:25.803Z,100758.98
2022-09-10T01:55:44.630Z,100760.55
2022-09-10T01:57:05.217Z,100748.93
2022-09-10T01:58:18.363Z,100757.12
2022-09-10T01:59:22.327Z,100754.67
2022-09-10T02:00:25.134Z,100754.55
2022-09-10T02:01:34.980Z,100746.67
2022-09-10T02:02:38.861Z,100754.48
2022-09-10T02:03:42.667Z,100749.97
2022-09-10T02:04:46.419Z,100727.63
2022-09-10T02:05:50.043Z,100752.88
2022-09-10T02:06:52.135Z,100749.44
2022-09-10T02:07:55.958Z,100750.10
2022-09-10T02:08:58.864Z,100750.23
2022-09-10T02:10:02.235Z,100749.57
2022-09-10T02:11:04.956Z,100757.12
2022-09-10T02:12:07.270Z,100751.70
2022-09-10T02:13:09.146Z,100747.58
2022-09-10T02:14:11.077Z,100746.61
2022-09-10T02:15:13.414Z,100743.70
2022-09-10T02:16:26.265Z,100750.10
2022-09-10T02:17:30.019Z,100744.94
2022-09-10T02:18:32.465Z,100746.73
2022-09-10T02:19:34.548Z,100745.76
2022-09-10T02:20:36.949Z,100740.73
2022-09-10T02:21:39.071Z,100744.22
2022-09-10T02:22:52.271Z,100744.09
2022-09-10T02:23:55.941Z,100737.83
2022-09-10T02:24:57.965Z,100733.77
2022-09-10T02:26:00.149Z,100736.22
2022-09-10T02:27:02.283Z,100735.31
2022-09-10T02:28:05.347Z,100734.48
2022-09-10T02:29:08.110Z,100730.80
2022-09-10T02:30:10.854Z,100739.78
2022-09-10T02:31:12.806Z,100737.00
2022-09-10T02:32:15.323Z,100736.48
2022-09-10T02:33:17.353Z,100731.84
2022-09-10T02:34:19.281Z,100731.13
2022-09-10T02:35:21.365Z,100727.63
2022-09-10T02:36:23.447Z,100725.05
2022-09-10T02:37:25.439Z,100726.81
2022-09-10T02:38:27.676Z,100726.81
2022-09-10T02:39:30.377Z,100731.19
2022-09-10T02:40:32.255Z,100726.03
2022-09-10T02:41:34.849Z,100726.91
2022-09-10T02:42:37.049Z,100717.97
2022-09-10T02:43:39.050Z,100713.75
2022-09-10T02:44:40.842Z,100720.14
2022-09-10T02:45:43.385Z,100714.01
2022-09-10T02:46:45.155Z,100715.83
2022-09-10T02:47:46.947Z,100711.43
2022-09-10T02:48:48.766Z,100715.23
2022-09-10T02:49:50.648Z,100712.53
2022-09-10T02:50:53.034Z,100713.12
2022-09-10T02:51:54.863Z,100713.41
2022-09-10T02:52:56.866Z,100710.67
2022-09-10T02:53:58.629Z,100708.03
2022-09-10T02:55:00.448Z,100706.52
2022-09-10T02:56:02.804Z,100705.48
2022-09-10T02:57:04.910Z,100703.69
2022-09-10T02:58:06.747Z,100715.96
2022-09-10T02:59:08.621Z,100709.23
2022-09-10T03:00:11.011Z,100704.00
2022-09-10T03:01:15.265Z,100696.27
2022-09-10T03:02:17.363Z,100696.20
2022-09-10T03:03:19.522Z,100700.52
2022-09-10T03:04:21.582Z,100695.48
2022-09-10T03:05:23.624Z,100693.63
2022-09-10T03:06:26.646Z,100693.75
2022-09-10T03:07:28.677Z,100695.48
2022-09-10T03:08:30.936Z,100694.56
2022-09-10T03:09:33.047Z,100691.05
2022-09-10T03:10:36.118Z,100690.38
2022-09-10T03:11:38.089Z,100686.77
2022-09-10T03:12:39.917Z,100686.64
2022-09-10T03:13:42.615Z,100692.89
2022-09-10T03:14:44.387Z,100682.27
2022-09-10T03:15:46.493Z,100691.05
2022-09-10T03:16:48.865Z,100685.94
2022-09-10T03:17:51.168Z,100689.13
2022-09-10T03:18:53.190Z,100697.34
2022-09-10T03:19:55.238Z,100688.65
2022-09-10T03:20:58.999Z,100689.47
2022-09-10T03:22:01.701Z,100690.44
2022-09-10T03:23:03.691Z,100683.30
2022-09-10T03:24:05.713Z,100692.17
2022-09-10T03:25:07.688Z,100694.75
2022-09-10T03:26:10.385Z,100688.40
2022-09-10T03:27:12.376Z,100688.52
2022-09-10T03:28:14.247Z,100691.05
2022-09-10T03:29:16.226Z,100685.03
2022-09-10T03:30:18.233Z,100629.10
2022-09-10T03:31:20.200Z,100690.91
2022-09-10T03:32:22.093Z,100698.37
2022-09-10T03:33:24.244Z,100690.31
2022-09-10T03:34:26.452Z,100687.02
2022-09-10T03:35:28.771Z,100679.88
2022-09-10T03:36:31.009Z,100640.52
2022-09-10T03:37:32.973Z,100689.53
2022-09-10T03:38:34.843Z,100683.42
2022-09-10T03:39:36.884Z,100679.62
2022-09-10T03:40:38.927Z,100684.50
2022-09-10T03:41:41.216Z,100686.01
2022-09-10T03:42:43.404Z,100645.55
2022-09-10T03:43:45.167Z,100688.46
2022-09-10T03:44:47.156Z,100680.84
2022-09-10T03:45:50.016Z,100688.59
2022-09-10T03:46:52.145Z,100683.42
2022-09-10T03:47:54.024Z,100678.02
2022-09-10T03:48:55.989Z,100681.48
2022-09-10T03:49:57.946Z,100690.44
2022-09-10T03:50:59.917Z,100681.48
2022-09-10T03:52:02.209Z,100684.44
2022-09-10T03:53:04.210Z,100681.61
2022-09-10T03:54:06.213Z,100685.03
2022-09-10T03:55:08.501Z,100690.31
2022-09-10T03:56:10.726Z,100674.52
2022-09-10T03:57:12.685Z,100685.03
2022-09-10T03:58:15.262Z,100684.13
2022-09-10T03:59:17.246Z,100679.62
2022-09-10T04:00:19.275Z,100686.06
2022-09-10T04:01:21.315Z,100681.73
2022-09-10T04:02:23.373Z,100680.84
2022-09-10T04:03:25.282Z,100681.73
2022-09-10T04:04:27.095Z,100683.30
2022-09-10T04:05:28.925Z,100683.17
2022-09-10T04:06:31.209Z,100681.41
2022-09-10T04:07:33.496Z,100681.48
2022-09-10T04:08:35.567Z,100670.91
2022-09-10T04:09:37.974Z,100677.89
2022-09-10T04:10:40.881Z,100678.90
2022-09-10T04:11:42.702Z,100682.33
2022-09-10T04:12:44.509Z,100685.09
2022-09-10T04:13:46.817Z,100687.48
2022-09-10T04:14:48.678Z,100684.05
2022-09-10T04:15:50.578Z,100687.67
2022-09-10T04:16:52.762Z,100682.52
2022-09-10T04:17:54.587Z,100681.48
2022-09-10T04:18:56.718Z,100682.20
2022-09-10T04:19:58.814Z,100676.91
2022-09-10T04:21:00.575Z,100666.34
2022-09-10T04:22:02.410Z,100674.92
2022-09-10T04:23:04.950Z,100673.27
2022-09-10T04:24:06.984Z,100667.84
2022-09-10T04:25:08.807Z,100666.28
2022-09-10T04:26:14.897Z,100674.20
2022-09-10T04:27:17.091Z,100674.02
2022-09-10T04:28:18.860Z,100680.22
2022-09-10T04:29:20.687Z,100672.41
2022-09-10T04:30:22.922Z,100674.34
2022-09-10T04:31:24.829Z,100667.06
2022-09-10T04:32:26.730Z,100664.67
2022-09-10T04:33:28.756Z,100659.98
2022-09-10T04:34:30.656Z,100664.48
2022-09-10T04:35:32.516Z,100662.98
2022-09-10T04:36:34.409Z,100660.20
2022-09-10T04:37:36.332Z,100656.75
2022-09-10T04:38:38.212Z,100660.20
2022-09-10T04:39:40.098Z,100653.13
2022-09-10T04:40:43.342Z,100650.48
2022-09-10T04:41:45.273Z,100655.58
2022-09-10T04:42:47.199Z,100657.47
2022-09-10T04:43:49.034Z,100657.15
2022-09-10T04:44:51.475Z,100656.36
2022-09-10T04:45:54.512Z,100657.15
2022-09-10T04:46:56.458Z,100651.20
2022-09-10T04:47:58.205Z,100650.23
2022-09-10T04:49:00.163Z,100644.34
2022-09-10T04:50:02.300Z,100640.44
2022-09-10T04:51:16.301Z,100645.53
2022-09-10T04:52:07.900Z,100649.97
2022-09-10T04:53:10.102Z,100643.93
2022-09-10T04:54:12.064Z,100645.86
2022-09-10T04:55:14.149Z,100643.93
2022-09-10T04:56:16.642Z,100647.52
2022-09-10T04:57:18.470Z,100645.80
2022-09-10T04:58:20.601Z,100639.66
2022-09-10T04:59:22.591Z,100639.39
2022-09-10T05:00:24.616Z,100645.53
2022-09-10T05:01:27.337Z,100642.95
2022-09-10T05:02:29.380Z,100642.10
2022-09-10T05:03:31.473Z,100642.10
2022-09-10T05:04:33.568Z,100653.53
2022-09-10T05:05:35.391Z,100643.61
2022-09-10T05:06:37.420Z,100641.94
2022-09-10T05:07:39.348Z,100639.46
2022-09-10T05:08:41.336Z,100634.44
2022-09-10T05:09:43.667Z,100625.49
2022-09-10T05:10:45.702Z,100629.94
2022-09-10T05:11:47.580Z,100631.47
2022-09-10T05:12:49.412Z,100631.66
2022-09-10T05:13:51.237Z,100632.45
2022-09-10T05:14:53.214Z,100640.25
2022-09-10T05:15:54.970Z,100634.23
2022-09-10T05:16:56.941Z,100633.09
2022-09-10T05:17:58.951Z,100634.83
2022-09-10T05:19:00.811Z,100616.78
2022-09-10T05:20:03.532Z,100632.31
2022-09-10T05:21:05.714Z,100635.94
2022-09-10T05:22:07.539Z,100637.80
2022-09-10T05:23:09.775Z,100633.23
2022-09-10T05:24:11.810Z,100635.74
2022-09-10T05:25:13.842Z,100630.52
2022-09-10T05:26:16.425Z,100638.52
2022-09-10T05:27:18.579Z,100629.80
2022-09-10T05:28:20.500Z,100636.00
2022-09-10T05:29:22.383Z,100629.67
2022-09-10T05:30:24.249Z,100625.30
2022-09-10T05:31:26.334Z,100628.83
2022-09-10T05:32:28.216Z,100638.52
2022-09-10T05:33:30.092Z,100628.07
2022-09-10T05:34:31.975Z,100636.06
2022-09-10T05:35:33.950Z,100633.36
2022-09-10T05:36:35.932Z,100632.58
2022-09-10T05:37:37.805Z,100631.66
2022-09-10T05:38:40.313Z,100638.05
2022-09-10T05:39:42.407Z,100634.56
2022-09-10T05:40:44.377Z,100630.06
2022-09-10T05:41:46.604Z,100628.49
2022-09-10T05:42:48.640Z,100631.79
2022-09-10T05:43:50.716Z,100636.00
2022-09-10T05:44:52.560Z,100637.02
2022-09-10T05:45:54.536Z,100632.58
2022-09-10T05:46:56.553Z,100634.38
2022-09-10T05:47:58.532Z,100631.79
2022-09-10T05:49:00.387Z,100632.51
2022-09-10T05:50:02.832Z,100631.66
2022-09-10T05:51:04.577Z,100632.51
2022-09-10T05:52:06.516Z,100636.27
2022-09-10T05:53:08.457Z,100631.04
2022-09-10T05:54:10.321Z,100640.77
2022-09-10T05:55:12.582Z,100631.79
2022-09-10T05:56:14.678Z,100631.79
2022-09-10T05:57:16.506Z,100633.23
2022-09-10T05:58:18.490Z,100629.87
2022-09-10T05:59:20.375Z,100627.42
2022-09-10T06:00:22.507Z,100619.48
2022-09-10T06:01:24.499Z,100619.36
2022-09-10T06:02:26.581Z,100628.14
2022-09-10T06:03:28.395Z,100610.77
2022-09-10T06:04:30.339Z,100622.66
2022-09-10T06:05:32.208Z,100624.91
2022-09-10T06:06:34.079Z,100625.56
2022-09-10T06:07:36.059Z,100622.78
2022-09-10T06:08:38.174Z,100626.31
2022-09-10T06:09:40.148Z,100623.05
2022-09-10T06:10:42.155Z,100624.84
2022-09-10T06:11:44.587Z,100624.77
2022-09-10T06:12:47.259Z,100634.56
2022-09-10T06:13:50.206Z,100636.88
2022-09-10T06:14:52.285Z,100630.91
2022-09-10T06:15:54.253Z,100633.48
2022-09-10T06:16:56.097Z,100645.80
2022-09-10T06:17:58.127Z,100631.79
2022-09-10T06:18:59.951Z,100638.77
2022-09-10T06:20:02.404Z,100639.06
2022-09-10T06:21:06.467Z,100632.90
2022-09-10T06:22:08.360Z,100637.14
2022-09-10T06:23:10.351Z,100641.48
2022-09-10T06:24:13.004Z,100629.02
2022-09-10T06:25:14.863Z,100637.20
2022-09-10T06:26:16.911Z,100635.34
2022-09-10T06:27:18.906Z,100634.63
2022-09-10T06:28:21.012Z,100635.34
2022-09-10T06:29:23.096Z,100629.14
2022-09-10T06:30:25.114Z,100638.13
2022-09-10T06:31:27.065Z,100628.20
2022-09-10T06:32:29.033Z,100637.92
2022-09-10T06:33:31.734Z,100640.37
2022-09-10T06:34:33.587Z,100644.94
2022-09-10T06:35:35.558Z,100640.63
2022-09-10T06:36:37.699Z,100642.36
2022-09-10T06:37:39.806Z,100638.64
2022-09-10T06:38:41.663Z,100645.92
2022-09-10T06:39:43.577Z,100640.56
2022-09-10T06:40:52.775Z,100645.86
2022-09-10T06:41:54.698Z,100644.06
2022-09-10T06:42:58.680Z,100645.80
2022-09-10T06:44:00.909Z,100640.50
2022-09-10T06:45:03.232Z,100643.80
2022-09-10T06:46:20.250Z,100626.77
2022-09-10T06:47:55.836Z,100639.30
2022-09-10T06:48:38.085Z,100629.67
2022-09-10T06:49:20.484Z,100630.45
2022-09-10T06:50:22.798Z,100610.97
2022-09-10T06:51:24.677Z,100641.22
2022-09-10T06:52:28.354Z,100634.95
2022-09-10T06:53:30.597Z,100632.45
2022-09-10T06:54:32.524Z,100633.36
2022-09-10T06:55:34.761Z,100606.73
2022-09-10T06:56:36.633Z,100633.16
2022-09-10T06:57:38.408Z,100639.30
2022-09-10T06:58:40.637Z,100636.75
2022-09-10T06:59:43.046Z,100612.77
2022-09-10T07:00:46.822Z,100636.81
2022-09-10T07:01:48.725Z,100638.52
2022-09-10T07:02:51.700Z,100629.67
2022-09-10T07:03:54.728Z,100624.25
2022-09-10T07:04:56.530Z,100623.44
2022-09-10T07:06:00.474Z,100632.31
2022-09-10T07:07:02.374Z,100638.39
2022-09-10T07:08:04.335Z,100634.17
2022-09-10T07:09:06.263Z,100624.58
2022-09-10T07:10:08.760Z,100626.31
2022-09-10T07:11:11.656Z,100626.08
2022-09-10T07:12:13.574Z,100622.66
2022-09-10T07:13:15.548Z,100624.52
2022-09-10T07:14:17.889Z,100620.89
2022-09-10T07:15:19.688Z,100626.24
2022-09-10T07:16:24.483Z,100626.18
2022-09-10T07:17:31.107Z,100624.64
2022-09-10T07:18:30.460Z,100629.80
2022-09-10T07:19:34.274Z,100619.23
2022-09-10T07:20:36.569Z,100624.52
2022-09-10T07:21:38.589Z,100625.30
2022-09-10T07:22:40.407Z,100621.73
2022-09-10T07:23:43.549Z,100628.89
2022-09-10T07:24:47.067Z,100622.66
2022-09-10T07:25:48.990Z,100622.78
2022-09-10T07:26:50.996Z,100609.89
2022-09-10T07:27:53.067Z,100627.03
2022-09-10T07:28:55.254Z,100629.54
2022-09-10T07:29:57.265Z,100629.73
2022-09-10T07:30:59.388Z,100626.24
2022-09-10T07:32:01.836Z,100631.47
2022-09-10T07:33:03.580Z,100636.59
2022-09-10T07:34:05.394Z,100630.65
2022-09-10T07:35:07.495Z,100631.47
2022-09-10T07:36:10.024Z,100635.74
2022-09-10T07:37:12.159Z,100612.77
2022-09-10T07:38:14.042Z,100640.31
2022-09-10T07:39:16.007Z,100626.63
2022-09-10T07:40:18.383Z,100629.14
2022-09-10T07:41:20.634Z,100636.20
2022-09-10T07:42:22.462Z,100633.36
2022-09-10T07:43:24.442Z,100621.88
2022-09-10T07:44:26.339Z,100626.24
2022-09-10T07:45:28.268Z,100623.60
2022-09-10T07:46:30.355Z,100626.24
2022-09-10T07:47:32.346Z,100621.09
2022-09-10T07:48:34.307Z,100624.38
2022-09-10T07:49:36.121Z,100627.94
2022-09-10T07:50:38.080Z,100622.66
2022-09-10T07:51:40.185Z,100628.66
2022-09-10T07:52:42.215Z,100626.08
2022-09-10T07:53:50.648Z,100627.09
2022-09-10T07:54:48.796Z,100625.23
2022-09-10T07:55:52.526Z,100623.67
2022-09-10T07:56:54.870Z,100620.95
2022-09-10T07:57:59.960Z,100628.89
2022-09-10T07:59:00.744Z,100613.67
2022-09-10T08:00:07.177Z,100624.84
2022-09-10T08:01:09.920Z,100611.55
2022-09-10T08:02:13.758Z,100621.34
2022-09-10T08:03:15.741Z,100623.98
2022-09-10T08:04:17.722Z,100616.64
2022-09-10T08:05:19.571Z,100609.69
2022-09-10T08:06:22.422Z,100618.77
2022-09-10T08:07:24.975Z,100616.97
2022-09-10T08:08:30.830Z,100612.66
2022-09-10T08:09:32.716Z,100605.48
2022-09-10T08:10:34.537Z,100610.84
2022-09-10T08:11:38.357Z,100597.81
2022-09-10T08:12:40.564Z,100604.80
2022-09-10T08:13:43.968Z,100611.03
2022-09-10T08:14:45.951Z,100607.51
2022-09-10T08:15:47.841Z,100600.39
2022-09-10T08:16:49.602Z,100606.66
2022-09-10T08:17:51.478Z,100611.10
2022-09-10T08:18:54.227Z,100592.02
2022-09-10T08:19:56.544Z,100601.24
2022-09-10T08:20:58.552Z,100601.89
2022-09-10T08:22:00.589Z,100601.38
2022-09-10T08:23:02.590Z,100609.44
2022-09-10T08:24:04.795Z,100609.38
2022-09-10T08:25:07.399Z,100617.37
2022-09-10T08:26:09.736Z,100610.22
2022-09-10T08:27:11.642Z,100614.73
2022-09-10T08:28:14.263Z,100614.66
2022-09-10T08:29:16.155Z,100605.95
2022-09-10T08:30:18.326Z,100613.03
2022-09-10T08:31:20.260Z,100603.23
2022-09-10T08:32:22.183Z,100605.23
2022-09-10T08:33:24.938Z,100595.24
2022-09-10T08:34:27.148Z,100603.23
2022-09-10T08:35:29.358Z,100607.58
2022-09-10T08:36:31.441Z,100598.86
2022-09-10T08:37:33.380Z,100604.22
2022-09-10T08:38:37.061Z,100606.92
2022-09-10T08:39:39.194Z,100594.52
2022-09-10T08:40:42.036Z,100600.59
2022-09-10T08:41:45.973Z,100595.24
2022-09-10T08:42:49.297Z,100605.03
2022-09-10T08:43:53.115Z,100602.65
2022-09-10T08:44:59.886Z,100597.43
2022-09-10T08:46:03.655Z,100596.61
2022-09-10T08:47:24.424Z,100594.92
2022-09-10T08:48:28.269Z,100592.92
2022-09-10T08:49:47.223Z,100602.84
2022-09-10T08:50:57.210Z,100597.63
2022-09-10T08:52:01.042Z,100591.20
2022-09-10T08:53:13.711Z,100594.78
2022-09-10T08:54:17.441Z,100593.91
2022-09-10T08:55:21.375Z,100595.70
2022-09-10T08:56:24.593Z,100591.20
2022-09-10T08:57:40.669Z,100587.64
2022-09-10T08:58:44.329Z,100592.14
2022-09-10T08:59:47.549Z,100594.78
2022-09-10T09:00:51.444Z,100584.34
2022-09-10T09:01:58.397Z,100580.75
2022-09-10T09:03:08.299Z,100579.91
2022-09-10T09:04:12.368Z,100583.47
2022-09-10T09:05:18.973Z,100552.24
2022-09-10T09:06:25.992Z,100579.06
2022-09-10T09:07:29.821Z,100580.98
2022-09-10T09:08:36.803Z,100577.46
2022-09-10T09:09:38.871Z,100575.64
2022-09-10T09:10:45.376Z,100570.35
2022-09-10T09:11:49.368Z,100572.24
2022-09-10T09:13:10.368Z,100580.11
2022-09-10T09:14:14.084Z,100575.64
2022-09-10T09:15:20.894Z,100571.98
2022-09-10T09:16:24.985Z,100569.66
2022-09-10T09:17:43.880Z,100576.81
2022-09-10T09:18:59.828Z,100573.91
2022-09-10T09:20:18.358Z,100573.77
2022-09-10T09:21:22.199Z,100565.06
2022-09-10T09:22:32.240Z,100564.25
2022-09-10T09:24:11.767Z,100575.90
2022-09-10T09:25:02.675Z,100566.89
2022-09-10T09:27:18.804Z,100562.94
2022-09-10T09:28:22.585Z,100566.77
2022-09-10T09:29:35.305Z,100558.70
2022-09-10T09:30:39.189Z,100564.12
2022-09-10T09:31:43.121Z,100552.70
2022-09-10T09:32:46.086Z,100561.47
2022-09-10T09:33:49.599Z,100564.18
2022-09-10T09:34:56.260Z,100561.61
2022-09-10T09:36:04.460Z,100564.18
2022-09-10T09:37:17.089Z,100567.02
2022-09-10T09:38:20.912Z,100553.88
2022-09-10T09:39:25.779Z,100564.97
2022-09-10T09:40:32.886Z,100569.41
2022-09-10T09:41:42.559Z,100573.91
2022-09-10T09:42:46.409Z,100567.77
2022-09-10T09:43:50.133Z,100564.90
2022-09-10T09:45:08.971Z,100568.63
2022-09-10T09:46:12.839Z,100565.06
2022-09-10T09:47:15.006Z,100561.73
2022-09-10T09:48:18.101Z,100564.25
2022-09-10T09:49:19.981Z,100572.17
2022-09-10T09:50:22.706Z,100567.48
2022-09-10T09:51:24.660Z,100556.19
2022-09-10T09:52:28.336Z,100558.83
2022-09-10T09:53:30.310Z,100566.63
2022-09-10T09:55:03.311Z,100533.75
2022-09-10T09:55:40.799Z,100559.61
2022-09-10T09:56:44.478Z,100557.92
2022-09-10T09:57:46.513Z,100564.18
2022-09-10T09:58:49.818Z,100557.92
2022-09-10T09:59:51.757Z,100556.19
2022-09-10T10:01:05.054Z,100557.92
2022-09-10T10:02:14.954Z,100560.56
2022-09-10T10:03:21.674Z,100565.13
2022-09-10T10:04:25.367Z,100552.63
2022-09-10T10:05:27.520Z,100549.98
2022-09-10T10:06:30.773Z,100552.50
2022-09-10T10:07:34.040Z,100550.77
2022-09-10T10:08:40.827Z,100543.82
2022-09-10T10:09:43.447Z,100553.28
2022-09-10T10:10:47.186Z,100547.21
2022-09-10T10:11:53.938Z,100556.19
2022-09-10T10:12:55.861Z,100547.34
2022-09-10T10:14:00.001Z,100539.55
2022-09-10T10:15:02.335Z,100541.41
2022-09-10T10:16:15.506Z,100539.55
2022-09-10T10:17:28.347Z,100536.91
2022-09-10T10:18:30.762Z,100532.41
2022-09-10T10:19:37.502Z,100543.11
2022-09-10T10:20:39.410Z,100538.84
2022-09-10T10:21:41.511Z,100535.18
2022-09-10T10:22:44.536Z,100542.91
2022-09-10T10:23:46.808Z,100534.40
2022-09-10T10:24:49.816Z,100530.61
2022-09-10T10:25:51.638Z,100534.91
2022-09-10T10:26:53.528Z,100525.94
2022-09-10T10:27:55.449Z,100535.48
2022-09-10T10:29:02.343Z,100535.36
2022-09-10T10:30:18.632Z,100529.29
2022-09-10T10:31:20.845Z,100529.48
2022-09-10T10:32:24.675Z,100521.42
2022-09-10T10:33:28.279Z,100527.90
2022-09-10T10:34:32.032Z,100519.97
2022-09-10T10:35:41.603Z,100521.50
2022-09-10T10:36:48.274Z,100525.13
2022-09-10T10:37:55.196Z,100519.05
2022-09-10T10:38:58.866Z,100523.29
2022-09-10T10:40:12.189Z,100523.94
2022-09-10T10:41:31.246Z,100525.63
2022-09-10T10:42:35.254Z,100521.29
2022-09-10T10:43:48.075Z,100520.52
2022-09-10T10:45:10.346Z,100522.98
2022-09-10T10:46:17.514Z,100517.63
2022-09-10T10:47:38.312Z,100515.80
2022-09-10T10:48:42.140Z,100515.52
2022-09-10T10:49:48.919Z,100512.28
2022-09-10T10:51:07.778Z,100509.62
2022-09-10T10:52:28.222Z,100506.20
2022-09-10T10:53:41.130Z,100509.77
2022-09-10T10:54:50.696Z,100508.01
2022-09-10T10:55:54.409Z,100504.28
2022-09-10T10:57:01.315Z,100498.92
2022-09-10T10:58:08.189Z,100500.65
2022-09-10T10:59:20.879Z,100502.38
2022-09-10T11:00:22.971Z,100500.65
2022-09-10T11:01:27.064Z,100497.73
2022-09-10T11:02:40.451Z,100489.80
2022-09-10T11:04:00.953Z,100488.06
2022-09-10T11:05:08.184Z,100489.80
2022-09-10T11:06:11.914Z,100495.08
2022-09-10T11:07:15.785Z,100486.38
2022-09-10T11:08:19.617Z,100489.09
2022-09-10T11:09:26.123Z,100487.16
2022-09-10T11:10:36.380Z,100483.73
2022-09-10T11:11:40.369Z,100478.20
2022-09-10T11:12:47.211Z,100488.70
2022-09-10T11:13:51.209Z,100492.51
2022-09-10T11:14:55.242Z,100489.94
2022-09-10T11:16:01.888Z,100488.06
2022-09-10T11:17:11.549Z,100486.20
2022-09-10T11:18:15.368Z,100479.86
2022-09-10T11:19:28.084Z,100477.07
2022-09-10T11:20:31.887Z,100489.66
2022-09-10T11:21:35.702Z,100484.51
2022-09-10T11:22:39.531Z,100472.20
2022-09-10T11:23:43.468Z,100478.94
2022-09-10T11:24:47.298Z,100478.27
2022-09-10T11:26:07.988Z,100482.64
2022-09-10T11:27:11.814Z,100475.80
2022-09-10T11:28:15.502Z,100474.71
2022-09-10T11:29:22.267Z,100474.92
2022-09-10T11:30:24.491Z,100471.43
2022-09-10T11:31:34.237Z,100468.78
2022-09-10T11:32:38.063Z,100467.70
2022-09-10T11:33:42.100Z,100463.28
2022-09-10T11:35:01.146Z,100466.78
2022-09-10T11:36:04.955Z,100430.33
2022-09-10T11:37:11.934Z,100461.34
2022-09-10T11:38:18.490Z,100457.78
2022-09-10T11:39:37.461Z,100464.13
2022-09-10T11:40:41.390Z,100448.91
2022-09-10T11:41:45.199Z,100459.41
2022-09-10T11:42:49.081Z,100455.98
2022-09-10T11:43:55.799Z,100451.33
2022-09-10T11:45:01.139Z,100449.71
2022-09-10T11:46:06.387Z,100452.03
2022-09-10T11:47:25.564Z,100451.75
2022-09-10T11:48:32.397Z,100449.91
2022-09-10T11:49:48.479Z,100456.89
2022-09-10T11:50:56.193Z,100444.77
2022-09-10T11:51:58.132Z,100442.75
2022-09-10T11:53:00.349Z,100445.33
2022-09-10T11:54:04.025Z,100446.24
2022-09-10T11:55:06.578Z,100447.27
2022-09-10T11:56:13.483Z,100441.91
2022-09-10T11:57:20.004Z,100451.53
2022-09-10T11:58:36.047Z,100440.88
2022-09-10T11:59:42.775Z,100453.33
2022-09-10T12:00:52.398Z,100441.73
2022-09-10T12:02:08.283Z,100440.18
2022-09-10T12:03:28.949Z,100438.31
2022-09-10T12:04:45.648Z,100434.89
2022-09-10T12:06:04.660Z,100432.17
2022-09-10T12:07:25.076Z,100427.51
2022-09-10T12:08:34.576Z,100435.44
2022-09-10T12:09:50.474Z,100442.46
2022-09-10T12:11:11.149Z,100439.67
2022-09-10T12:12:17.858Z,100439.52
2022-09-10T12:13:20.052Z,100428.94
2022-09-10T12:14:22.544Z,100430.78